LKVL weather

Vlašim Airfield
Vlašim, Central Bohemian Region, Czech Republic

Public forecast

Using degrees Celsius for public forecast. Weather courtesy of forecast.io.

Closest aviation weather report (METAR) to Vlašim Airfield

Closest report is Čáslav Air Base, 23.2 nm (43.0 km) ENE. Retrieved 2020/04/09 00:00 UTC (16 minutes ago):

LKCV 090000Z 11006KT CAVOK 09/M05 Q1022 NOSIG RMK BLU BLU

Closest aviation forecast (TAF) to Vlašim Airfield

Closest forecast is Čáslav Air Base, 23.2 nm (43.0 km) ENE. Retrieved 2020-04-09 00:06 UTC (10 minutes ago):

TAF LKCV 082300Z 0900/1000 16004KT CAVOK BECMG 0908/0910 31008KT PROB30 TEMPO 0915/0918 32014KT SHRA SCT045